Time;durP1;ratioP1;P1;durP2;ratioP2;P2;SDS_P1;SDS_P2;PMS_P1;PMS_P2;Temp;Humidity;BMP_temperature;BMP_pressure;BME280_temperature;BME280_humidity;BME280_pressure;Samples;Min_cycle;Max_cycle;Signal;HPM_P1;HPM_P2
2022/11/24 00:02:22;;;;;;;2.92;2.37;;;2.70;99.90;;;;;;4390375;32;20066;-78
2022/11/24 00:04:47;;;;;;;1.15;1.15;;;2.70;99.90;;;;;;4375139;32;20566;-78
2022/11/24 00:07:13;;;;;;;3.00;1.73;;;2.70;99.90;;;;;;4380736;32;20103;-79
2022/11/24 00:09:38;;;;;;;2.37;2.00;;;2.60;99.90;;;;;;4392518;32;20102;-79
2022/11/24 00:12:04;;;;;;;2.45;1.70;;;2.70;99.90;;;;;;4390605;32;20134;-79
2022/11/24 00:14:29;;;;;;;3.50;2.70;;;2.60;99.90;;;;;;4387611;32;20420;-79
2022/11/24 00:16:55;;;;;;;2.00;1.90;;;2.60;99.90;;;;;;4394043;32;20109;-79
2022/11/24 00:19:20;;;;;;;2.55;2.12;;;2.50;99.90;;;;;;4391723;32;20841;-80
2022/11/24 00:21:46;;;;;;;4.68;2.50;;;2.60;99.90;;;;;;4386551;32;20200;-79
2022/11/24 00:24:12;;;;;;;4.65;1.65;;;2.60;99.90;;;;;;4386691;32;20082;-79
2022/11/24 00:26:38;;;;;;;2.58;2.35;;;2.60;99.90;;;;;;4387354;32;20108;-80
2022/11/24 00:29:06;;;;;;;2.15;1.75;;;2.60;99.90;;;;;;4390594;32;20069;-80
2022/11/24 00:31:35;;;;;;;1.77;1.67;;;2.70;99.90;;;;;;4387642;32;20093;-79
2022/11/24 00:34:03;;;;;;;2.95;2.08;;;2.70;99.90;;;;;;4376365;32;20343;-79
2022/11/24 00:36:31;;;;;;;2.90;2.70;;;2.70;99.90;;;;;;4370235;32;20095;-77
2022/11/24 00:38:59;;;;;;;3.33;2.45;;;2.70;99.90;;;;;;4391243;32;20849;-80
2022/11/24 00:41:25;;;;;;;5.90;3.15;;;2.70;99.90;;;;;;4388650;32;20094;-79
2022/11/24 00:43:52;;;;;;;4.12;2.22;;;2.70;99.90;;;;;;4394403;32;20495;-80
2022/11/24 00:46:18;;;;;;;1.73;1.48;;;2.70;99.90;;;;;;4389086;32;21389;-80
2022/11/24 00:48:44;;;;;;;20.95;3.05;;;2.70;99.90;;;;;;4389983;32;20582;-79
2022/11/24 00:51:11;;;;;;;6.97;4.35;;;2.70;99.90;;;;;;4392540;32;20070;-80
2022/11/24 00:53:38;;;;;;;6.45;3.17;;;2.70;99.90;;;;;;4383460;32;20095;-79
2022/11/24 00:56:04;;;;;;;3.03;2.30;;;2.70;99.90;;;;;;4391491;32;20198;-79
2022/11/24 00:58:30;;;;;;;2.58;2.25;;;2.70;99.90;;;;;;4390383;32;20075;-79
2022/11/24 01:01:02;;;;;;;1.73;1.62;;;2.70;99.90;;;;;;4390670;32;20065;-79
2022/11/24 01:03:27;;;;;;;5.53;3.12;;;2.60;99.90;;;;;;4380907;32;20070;-78
2022/11/24 01:05:53;;;;;;;2.17;1.98;;;2.70;99.90;;;;;;4371970;32;20472;-78
2022/11/24 01:08:18;;;;;;;1.95;1.83;;;2.70;99.90;;;;;;4387340;32;20078;-79
2022/11/24 01:10:44;;;;;;;9.82;3.00;;;2.60;99.90;;;;;;4392605;32;20506;-79
2022/11/24 01:13:11;;;;;;;1.05;1.00;;;2.60;99.90;;;;;;4387906;32;20205;-79
2022/11/24 01:15:36;;;;;;;5.60;3.55;;;2.50;99.90;;;;;;4390492;32;20444;-79
2022/11/24 01:18:02;;;;;;;10.15;2.97;;;2.50;99.90;;;;;;4388699;32;20078;-78
2022/11/24 01:20:27;;;;;;;2.45;2.22;;;2.50;99.90;;;;;;4389713;32;20074;-80
2022/11/24 01:22:53;;;;;;;9.30;3.70;;;2.50;99.90;;;;;;4388491;32;20440;-79
2022/11/24 01:25:18;;;;;;;4.03;3.03;;;2.50;99.90;;;;;;4389068;32;20102;-79
2022/11/24 01:27:44;;;;;;;2.53;2.33;;;2.60;99.90;;;;;;4387813;32;20070;-79
2022/11/24 01:30:10;;;;;;;1.37;1.30;;;2.60;99.90;;;;;;4389671;32;20085;-79
2022/11/24 01:32:36;;;;;;;1.60;1.50;;;2.70;99.90;;;;;;4391953;32;20070;-78
2022/11/24 01:35:03;;;;;;;2.87;1.67;;;2.70;99.90;;;;;;4373002;32;20090;-78
2022/11/24 01:37:28;;;;;;;1.85;1.60;;;2.70;99.90;;;;;;4379679;32;20074;-80
2022/11/24 01:39:54;;;;;;;2.50;1.95;;;2.60;99.90;;;;;;4393732;32;20107;-80
2022/11/24 01:42:19;;;;;;;1.87;1.77;;;2.70;99.90;;;;;;4392700;32;20134;-79
2022/11/24 01:44:47;;;;;;;2.33;1.23;;;2.50;99.90;;;;;;4390689;32;20063;-79
2022/11/24 01:47:35;;;;;;;3.53;2.30;;;2.60;99.90;;;;;;4392824;32;20443;-79
2022/11/24 01:50:03;;;;;;;5.97;2.42;;;2.50;99.90;;;;;;4378936;32;20085;-80
2022/11/24 01:52:36;;;;;;;1.92;1.62;;;2.40;99.90;;;;;;4394280;32;20085;-79
2022/11/24 01:55:13;;;;;;;1.90;1.70;;;2.30;99.90;;;;;;4392683;32;20105;-79
2022/11/24 01:57:44;;;;;;;7.78;3.67;;;2.30;99.90;;;;;;4393371;32;20085;-80
2022/11/24 02:00:12;;;;;;;2.47;1.98;;;2.20;99.90;;;;;;4389521;32;20108;-79
2022/11/24 02:02:38;;;;;;;1.10;1.10;;;2.00;99.90;;;;;;4388526;32;20557;-78
2022/11/24 02:05:09;;;;;;;4.12;1.83;;;2.00;99.90;;;;;;4374403;32;20419;-78
2022/11/24 02:07:35;;;;;;;1.92;1.67;;;2.10;99.90;;;;;;4379335;32;20094;-79
2022/11/24 02:10:07;;;;;;;3.08;1.87;;;2.00;99.90;;;;;;4388224;32;20070;-79
2022/11/24 02:12:33;;;;;;;1.65;1.55;;;1.90;99.90;;;;;;4389013;32;20071;-79
2022/11/24 02:15:00;;;;;;;12.07;2.70;;;2.00;99.90;;;;;;4388984;32;20506;-79
2022/11/24 02:17:26;;;;;;;4.20;3.05;;;1.90;99.90;;;;;;4390589;32;20498;-79
2022/11/24 02:19:57;;;;;;;4.15;3.05;;;2.00;99.90;;;;;;4387659;32;20139;-80
2022/11/24 02:22:48;;;;;;;2.17;1.77;;;2.00;99.90;;;;;;4389745;32;20129;-79
2022/11/24 02:25:42;;;;;;;3.60;2.45;;;1.90;99.90;;;;;;4379991;32;20086;-79
2022/11/24 02:28:12;;;;;;;1.60;1.50;;;1.90;99.90;;;;;;4376561;32;20128;-79
2022/11/24 02:30:38;;;;;;;;;;;1.90;99.90;;;;;;4385017;32;20137;-80
2022/11/24 02:33:03;;;;;;;2.15;1.95;;;1.90;99.90;;;;;;4380981;32;20034;-79
2022/11/24 02:35:30;;;;;;;2.40;1.92;;;1.80;99.90;;;;;;4371872;32;20479;-78
2022/11/24 02:37:55;;;;;;;1.50;1.12;;;1.90;99.90;;;;;;4383207;32;20094;-79
2022/11/24 02:40:24;;;;;;;2.17;1.77;;;1.90;99.90;;;;;;4386789;32;20144;-79
2022/11/24 02:42:54;;;;;;;1.05;0.93;;;1.90;99.90;;;;;;4386907;32;20085;-79
2022/11/24 02:45:20;;;;;;;2.07;1.93;;;1.90;99.90;;;;;;4388305;32;20099;-79
2022/11/24 02:47:45;;;;;;;3.33;2.08;;;1.90;99.90;;;;;;4386953;32;20079;-79
2022/11/24 02:50:11;;;;;;;5.20;3.12;;;2.00;99.90;;;;;;4390851;32;20527;-79
2022/11/24 02:52:36;;;;;;;1.00;1.00;;;2.00;99.90;;;;;;4389512;32;20424;-79
2022/11/24 02:55:03;;;;;;;1.00;1.00;;;1.90;99.90;;;;;;4390358;32;20090;-79
2022/11/24 02:57:29;;;;;;;7.62;3.05;;;1.90;99.90;;;;;;4389896;32;20082;-79
2022/11/24 02:59:54;;;;;;;3.67;2.15;;;2.00;99.90;;;;;;4389256;32;20081;-79
2022/11/24 03:02:20;;;;;;;4.05;2.15;;;2.00;99.90;;;;;;4388710;32;20065;-77
2022/11/24 03:04:45;;;;;;;0.90;0.90;;;2.10;99.90;;;;;;4369928;32;20089;-79
2022/11/24 03:07:11;;;;;;;0.85;0.85;;;2.00;99.90;;;;;;4379986;32;20097;-79
2022/11/24 03:09:36;;;;;;;4.57;3.33;;;2.00;99.90;;;;;;4390585;32;20074;-79
2022/11/24 03:12:02;;;;;;;1.60;1.48;;;2.00;99.90;;;;;;4388207;32;20522;-79
2022/11/24 03:14:27;;;;;;;1.73;1.37;;;2.00;99.90;;;;;;4388199;32;20082;-79
2022/11/24 03:16:52;;;;;;;1.70;1.58;;;2.00;99.90;;;;;;4387813;32;20082;-79
2022/11/24 03:19:18;;;;;;;1.02;1.02;;;2.10;99.90;;;;;;4392236;32;20142;-79
2022/11/24 03:21:43;;;;;;;3.80;2.75;;;2.00;99.90;;;;;;4392347;32;20074;-80
2022/11/24 03:24:09;;;;;;;1.85;1.55;;;2.00;99.90;;;;;;4390894;32;20078;-80
2022/11/24 03:26:35;;;;;;;1.30;1.23;;;2.00;99.90;;;;;;4390552;32;20566;-79
2022/11/24 03:29:00;;;;;;;2.03;1.85;;;1.90;99.90;;;;;;4387774;32;20449;-79
2022/11/24 03:31:26;;;;;;;3.67;1.83;;;1.90;99.90;;;;;;4394869;32;20407;-79
2022/11/24 03:33:51;;;;;;;2.55;1.95;;;1.80;99.90;;;;;;4379793;32;20089;-79
2022/11/24 03:36:17;;;;;;;2.62;2.42;;;1.80;99.90;;;;;;4370644;32;20069;-79
2022/11/24 03:38:43;;;;;;;7.80;3.25;;;1.80;99.90;;;;;;4389665;32;20082;-79
2022/11/24 03:41:09;;;;;;;2.05;1.83;;;1.80;99.90;;;;;;4387435;32;20069;-79
2022/11/24 03:43:34;;;;;;;1.48;1.37;;;1.80;99.90;;;;;;4389228;32;20526;-79
2022/11/24 03:46:00;;;;;;;0.73;0.73;;;1.80;99.90;;;;;;4391741;32;20070;-80
2022/11/24 03:48:25;;;;;;;1.75;1.65;;;1.90;99.90;;;;;;4390083;32;20103;-79
2022/11/24 03:50:53;;;;;;;9.25;1.90;;;2.00;99.90;;;;;;4388592;32;20071;-79
2022/11/24 03:53:19;;;;;;;6.15;3.85;;;2.00;99.90;;;;;;4389491;32;20069;-79
2022/11/24 03:55:44;;;;;;;4.68;3.00;;;1.90;99.90;;;;;;4391509;32;20703;-79
2022/11/24 03:58:10;;;;;;;1.20;1.15;;;2.00;99.90;;;;;;4389162;32;20086;-80
2022/11/24 04:00:35;;;;;;;1.67;1.58;;;1.90;99.90;;;;;;4388198;32;20083;-79
2022/11/24 04:03:00;;;;;;;2.22;2.03;;;1.80;99.90;;;;;;4385931;32;20172;-78
2022/11/24 04:05:26;;;;;;;1.20;1.17;;;1.80;99.90;;;;;;4372084;32;20066;-78
2022/11/24 04:07:56;;;;;;;3.20;1.73;;;1.80;99.90;;;;;;4380045;32;20237;-80
2022/11/24 04:10:22;;;;;;;1.60;1.50;;;1.70;99.90;;;;;;4389781;32;20361;-80
2022/11/24 04:12:47;;;;;;;4.37;3.05;;;1.70;99.90;;;;;;4389183;32;20529;-79
2022/11/24 04:15:16;;;;;;;1.25;1.17;;;1.80;99.90;;;;;;4389178;32;20062;-79
2022/11/24 04:17:42;;;;;;;1.23;1.15;;;1.70;99.90;;;;;;4386898;32;20066;-79
2022/11/24 04:20:08;;;;;;;4.18;2.20;;;1.80;99.90;;;;;;4392503;32;20078;-79
2022/11/24 04:22:34;;;;;;;4.37;2.40;;;1.80;99.90;;;;;;4385755;32;20483;-79
2022/11/24 04:25:00;;;;;;;2.53;1.95;;;1.80;99.90;;;;;;4388358;32;20090;-79
2022/11/24 04:27:26;;;;;;;1.52;1.42;;;1.80;99.90;;;;;;4390560;32;20534;-79
2022/11/24 04:29:51;;;;;;;1.90;1.77;;;1.80;99.90;;;;;;4388874;32;20066;-79
2022/11/24 04:32:17;;;;;;;0.85;0.77;;;1.80;99.90;;;;;;4389592;32;20061;-78
2022/11/24 04:34:43;;;;;;;1.73;1.58;;;1.70;99.90;;;;;;4371636;32;20089;-78
2022/11/24 04:37:09;;;;;;;1.90;1.70;;;1.60;99.90;;;;;;4379302;32;20082;-79
2022/11/24 04:39:34;;;;;;;1.62;1.52;;;1.60;99.90;;;;;;4389954;32;20066;-79
2022/11/24 04:42:00;;;;;;;2.00;1.85;;;1.60;99.90;;;;;;4388600;32;20484;-79
2022/11/24 04:44:25;;;;;;;1.42;1.20;;;1.50;99.90;;;;;;4387693;32;20066;-79
2022/11/24 04:46:50;;;;;;;1.10;1.10;;;1.40;99.90;;;;;;4388410;32;20132;-79
2022/11/24 04:49:16;;;;;;;2.33;1.52;;;1.50;99.90;;;;;;4390646;32;20069;-79
2022/11/24 04:51:42;;;;;;;1.52;1.42;;;1.50;99.90;;;;;;4389929;32;20070;-79
2022/11/24 04:54:09;;;;;;;1.60;1.50;;;1.50;99.90;;;;;;4391150;32;20114;-79
2022/11/24 04:56:35;;;;;;;3.03;2.08;;;1.50;99.90;;;;;;4390606;32;20070;-79
2022/11/24 04:59:00;;;;;;;4.90;2.33;;;1.50;99.90;;;;;;4388658;32;20082;-79
2022/11/24 05:01:26;;;;;;;2.35;1.45;;;1.60;99.90;;;;;;4388413;32;20074;-80
2022/11/24 05:03:53;;;;;;;3.05;1.87;;;1.50;99.90;;;;;;4375785;32;20105;-78
2022/11/24 05:06:19;;;;;;;1.85;1.33;;;1.50;99.90;;;;;;4366774;32;20139;-78
2022/11/24 05:08:46;;;;;;;2.37;2.10;;;1.40;99.90;;;;;;4387821;32;20070;-79
2022/11/24 05:11:12;;;;;;;13.10;2.15;;;1.50;99.90;;;;;;4388863;32;20102;-79
2022/11/24 05:13:38;;;;;;;2.97;1.87;;;1.50;99.90;;;;;;4386091;32;21045;-80
2022/11/24 05:16:04;;;;;;;2.15;1.60;;;1.50;99.90;;;;;;4388562;32;20585;-79
2022/11/24 05:18:30;;;;;;;5.87;3.17;;;1.40;99.90;;;;;;4386886;32;20126;-79
2022/11/24 05:20:57;;;;;;;3.15;1.52;;;1.40;99.90;;;;;;4387166;32;20082;-78
2022/11/24 05:23:22;;;;;;;0.88;0.88;;;1.50;99.90;;;;;;4354822;32;20065;-78
2022/11/24 05:25:48;;;;;;;1.52;1.40;;;1.30;99.90;;;;;;4360633;32;20069;-78
2022/11/24 05:28:15;;;;;;;3.03;2.17;;;1.10;99.90;;;;;;4348252;32;20075;-79
2022/11/24 05:30:46;;;;;;;1.25;1.20;;;1.20;99.90;;;;;;4355700;32;20445;-78
2022/11/24 05:33:17;;;;;;;2.60;1.98;;;1.10;99.90;;;;;;4340795;32;20082;-77
2022/11/24 05:35:44;;;;;;;3.83;1.80;;;1.10;99.90;;;;;;4338054;32;20070;-78
2022/11/24 05:38:09;;;;;;;8.13;2.58;;;1.10;99.90;;;;;;4373399;32;20200;-80
2022/11/24 05:40:35;;;;;;;1.65;1.55;;;1.10;99.90;;;;;;4389086;32;20102;-79
2022/11/24 05:43:01;;;;;;;5.80;3.00;;;1.10;99.90;;;;;;4386133;32;20078;-79
2022/11/24 05:45:26;;;;;;;1.27;1.17;;;1.10;99.90;;;;;;4387137;32;20396;-79
2022/11/24 05:47:53;;;;;;;1.60;1.50;;;1.00;99.90;;;;;;4389472;32;20087;-79
2022/11/24 05:50:20;;;;;;;1.00;1.00;;;1.00;99.90;;;;;;4390877;32;20100;-80
2022/11/24 05:52:45;;;;;;;1.48;1.33;;;1.00;99.90;;;;;;4363324;32;20153;-78
2022/11/24 05:55:13;;;;;;;3.60;2.83;;;1.10;99.90;;;;;;4354446;32;20870;-78
2022/11/24 05:57:39;;;;;;;0.90;0.90;;;1.10;99.90;;;;;;4371466;32;20136;-79
2022/11/24 06:00:08;;;;;;;2.10;1.70;;;1.10;99.90;;;;;;4388623;32;20102;-78
2022/11/24 06:02:34;;;;;;;0.82;0.82;;;1.20;99.90;;;;;;4379477;32;20974;-78
2022/11/24 06:04:59;;;;;;;1.90;1.10;;;1.20;99.90;;;;;;4341544;32;20444;-78
2022/11/24 06:07:25;;;;;;;1.60;1.50;;;1.20;99.90;;;;;;4352601;32;20506;-78
2022/11/24 06:09:50;;;;;;;0.80;0.80;;;1.20;99.90;;;;;;4344715;32;20311;-78
2022/11/24 06:12:16;;;;;;;1.92;1.67;;;1.30;99.90;;;;;;4348249;32;20180;-78
2022/11/24 06:14:41;;;;;;;4.00;1.85;;;1.30;99.90;;;;;;4337719;32;20576;-78
2022/11/24 06:17:08;;;;;;;1.70;1.58;;;1.30;99.90;;;;;;4340863;32;20086;-78
2022/11/24 06:19:34;;;;;;;2.12;1.80;;;1.30;99.90;;;;;;4303875;32;20368;-78
2022/11/24 06:21:59;;;;;;;1.17;1.12;;;1.30;99.90;;;;;;4316617;32;20743;-78
2022/11/24 06:24:25;;;;;;;2.15;1.98;;;1.20;99.90;;;;;;4283028;32;20558;-78
2022/11/24 06:26:50;;;;;;;0.93;0.90;;;1.20;99.90;;;;;;4310037;32;20291;-78
2022/11/24 06:29:16;;;;;;;2.58;1.27;;;1.10;99.90;;;;;;4301285;32;20329;-78
2022/11/24 06:31:41;;;;;;;1.15;1.15;;;1.20;99.90;;;;;;4289458;32;20230;-77
2022/11/24 06:34:10;;;;;;;1.12;1.12;;;1.20;99.90;;;;;;4308668;32;20119;-76
2022/11/24 06:36:36;;;;;;;1.55;1.45;;;1.30;99.90;;;;;;4312770;32;20655;-77
2022/11/24 06:39:02;;;;;;;0.60;0.60;;;1.30;99.90;;;;;;4323552;32;20211;-77
2022/11/24 06:41:28;;;;;;;1.65;1.55;;;1.30;99.90;;;;;;4325275;32;20265;-77
2022/11/24 06:43:54;;;;;;;2.70;1.45;;;1.30;99.90;;;;;;4329237;32;20800;-76
2022/11/24 06:46:19;;;;;;;1.25;1.20;;;1.40;99.90;;;;;;4328239;32;20274;-77
2022/11/24 06:48:45;;;;;;;1.12;1.12;;;1.40;99.90;;;;;;4335899;32;21076;-76
2022/11/24 06:51:12;;;;;;;2.00;1.55;;;1.40;99.90;;;;;;4345002;32;21462;-77
2022/11/24 06:53:38;;;;;;;2.45;1.70;;;1.40;99.90;;;;;;4337172;32;20090;-77
2022/11/24 06:56:07;;;;;;;2.17;1.67;;;1.40;99.90;;;;;;4344748;32;20342;-79
2022/11/24 06:58:32;;;;;;;1.15;1.15;;;1.40;99.90;;;;;;4358810;32;20200;-78
2022/11/24 07:00:58;;;;;;;3.00;1.85;;;1.50;99.90;;;;;;4347159;32;20458;-78
2022/11/24 07:03:23;;;;;;;1.05;0.95;;;1.50;99.90;;;;;;4343346;32;20155;-78
2022/11/24 07:05:55;;;;;;;2.25;1.55;;;1.50;99.90;;;;;;4342933;32;20179;-77
2022/11/24 07:08:21;;;;;;;1.15;1.15;;;1.60;99.90;;;;;;4353963;32;20091;-79
2022/11/24 07:10:46;;;;;;;2.15;1.42;;;1.60;99.90;;;;;;4364837;32;20639;-81
2022/11/24 07:13:12;;;;;;;0.80;0.80;;;1.50;99.90;;;;;;4366941;32;20098;-78
2022/11/24 07:15:37;;;;;;;1.05;1.00;;;1.50;99.90;;;;;;4357929;32;20177;-77
2022/11/24 07:18:03;;;;;;;0.93;0.93;;;1.60;99.90;;;;;;4357416;32;20159;-78
2022/11/24 07:20:30;;;;;;;1.58;1.45;;;1.50;99.90;;;;;;4343101;32;20121;-78
2022/11/24 07:22:56;;;;;;;2.92;2.15;;;1.50;99.90;;;;;;4350722;32;20718;-80
2022/11/24 07:25:23;;;;;;;0.95;0.95;;;1.50;99.90;;;;;;4356470;32;20106;-79
2022/11/24 07:27:48;;;;;;;1.62;1.52;;;1.50;99.90;;;;;;4361797;32;20090;-77
2022/11/24 07:30:14;;;;;;;0.77;0.77;;;1.50;99.90;;;;;;4313704;32;1119293;-79
2022/11/24 07:32:40;;;;;;;1.10;1.10;;;1.50;99.90;;;;;;4344334;32;20086;-78
2022/11/24 07:35:05;;;;;;;1.40;1.27;;;1.50;99.90;;;;;;4340245;32;20119;-78
2022/11/24 07:37:31;;;;;;;2.33;1.42;;;1.60;99.90;;;;;;4355623;32;20593;-79
2022/11/24 07:39:56;;;;;;;3.47;1.95;;;1.60;99.90;;;;;;4355366;32;20093;-79
2022/11/24 07:42:22;;;;;;;7.47;2.72;;;1.60;99.90;;;;;;4361959;32;20105;-80
2022/11/24 07:44:47;;;;;;;5.80;2.78;;;1.60;99.90;;;;;;4367947;32;20066;-80
2022/11/24 07:47:13;;;;;;;1.05;1.02;;;1.60;99.90;;;;;;4360807;32;20098;-79
2022/11/24 07:49:39;;;;;;;0.80;0.80;;;1.70;99.90;;;;;;4359202;32;20411;-78
2022/11/24 07:52:07;;;;;;;1.00;1.00;;;1.70;99.90;;;;;;4351203;32;20411;-78
2022/11/24 07:54:32;;;;;;;1.00;0.93;;;1.70;99.90;;;;;;4350732;32;20528;-78
2022/11/24 07:56:58;;;;;;;0.85;0.85;;;1.70;99.90;;;;;;4358537;32;20275;-78
2022/11/24 07:59:23;;;;;;;1.25;1.17;;;1.70;99.90;;;;;;4368181;32;20221;-79
2022/11/24 08:01:49;;;;;;;4.37;2.30;;;1.70;99.90;;;;;;4355028;32;20226;-78
2022/11/24 08:04:14;;;;;;;1.37;1.25;;;1.70;99.90;;;;;;4346944;32;20322;-79
2022/11/24 08:06:39;;;;;;;1.70;1.60;;;1.70;99.90;;;;;;4353462;32;20358;-78
2022/11/24 08:09:05;;;;;;;13.82;1.87;;;1.70;99.90;;;;;;4373117;32;20246;-80
2022/11/24 08:11:31;;;;;;;2.17;1.65;;;1.70;99.90;;;;;;4372009;32;20969;-81
2022/11/24 08:13:57;;;;;;;1.23;1.17;;;1.80;99.90;;;;;;4362752;32;20487;-78
2022/11/24 08:16:22;;;;;;;5.60;3.55;;;1.90;99.90;;;;;;4361108;32;21692;-77
2022/11/24 08:18:51;;;;;;;2.72;2.05;;;1.90;99.90;;;;;;4362483;32;20274;-78
2022/11/24 08:21:17;;;;;;;1.73;1.62;;;1.90;99.90;;;;;;4337266;32;20106;-77
2022/11/24 08:23:43;;;;;;;2.92;2.37;;;1.90;99.90;;;;;;4346706;32;20130;-81
2022/11/24 08:26:14;;;;;;;1.45;0.95;;;2.00;99.90;;;;;;4363885;32;20102;-80
2022/11/24 08:28:40;;;;;;;1.55;0.75;;;2.10;99.90;;;;;;4364982;32;21032;-80
2022/11/24 08:31:08;;;;;;;1.77;1.55;;;2.10;99.90;;;;;;4353662;32;20550;-80
2022/11/24 08:33:34;;;;;;;1.87;1.73;;;2.10;99.90;;;;;;4342692;32;20249;-80
2022/11/24 08:36:09;;;;;;;1.42;1.33;;;2.00;99.90;;;;;;4350456;32;20093;-80
2022/11/24 08:38:35;;;;;;;2.35;1.95;;;2.10;99.90;;;;;;4363055;32;20123;-79
2022/11/24 08:41:04;;;;;;;2.30;1.62;;;2.20;99.90;;;;;;4363155;32;20142;-79
2022/11/24 08:43:30;;;;;;;1.58;1.48;;;2.20;99.90;;;;;;4356766;32;20082;-78
2022/11/24 08:45:59;;;;;;;1.27;1.17;;;2.30;99.90;;;;;;4358989;32;20655;-78
2022/11/24 08:48:24;;;;;;;0.90;0.90;;;2.30;99.90;;;;;;4362254;32;20092;-79
2022/11/24 08:50:50;;;;;;;14.68;2.03;;;2.30;99.90;;;;;;4348577;32;20121;-78
2022/11/24 08:53:16;;;;;;;4.20;1.80;;;2.40;99.90;;;;;;4355380;32;20089;-78
2022/11/24 08:55:41;;;;;;;1.40;1.30;;;2.40;99.90;;;;;;4353892;32;20110;-79
2022/11/24 08:58:07;;;;;;;0.98;0.93;;;2.40;99.90;;;;;;4363971;32;20714;-80
2022/11/24 09:00:32;;;;;;;2.08;1.85;;;2.30;99.90;;;;;;4348266;32;21059;-78
2022/11/24 09:02:59;;;;;;;4.47;2.33;;;2.30;99.90;;;;;;4336477;32;20201;-81
2022/11/24 09:05:24;;;;;;;2.15;1.35;;;2.40;99.90;;;;;;4341832;32;20113;-81
2022/11/24 09:07:50;;;;;;;1.87;1.23;;;2.60;99.90;;;;;;4355936;32;20090;-81
2022/11/24 09:10:16;;;;;;;1.42;1.33;;;2.40;99.90;;;;;;4361381;32;20085;-80
2022/11/24 09:12:44;;;;;;;1.95;1.75;;;2.40;99.90;;;;;;4364991;32;20137;-81
2022/11/24 09:15:10;;;;;;;1.23;1.20;;;2.40;99.90;;;;;;4366036;32;20090;-81
2022/11/24 09:17:35;;;;;;;1.37;1.30;;;2.40;99.90;;;;;;4374050;32;20136;-82
2022/11/24 09:20:03;;;;;;;1.55;1.45;;;2.40;99.90;;;;;;4355930;32;20150;-81
2022/11/24 09:22:30;;;;;;;1.27;1.17;;;2.40;99.90;;;;;;4358523;32;20188;-76
2022/11/24 09:24:56;;;;;;;0.95;0.95;;;2.40;99.90;;;;;;4338762;32;20535;-78
2022/11/24 09:27:21;;;;;;;1.10;1.10;;;2.60;99.90;;;;;;4341743;32;20074;-79
2022/11/24 09:29:49;;;;;;;1.20;0.68;;;2.70;99.90;;;;;;4348736;32;20078;-77
2022/11/24 09:32:14;;;;;;;4.43;2.08;;;2.80;99.90;;;;;;4342575;32;21058;-79
2022/11/24 09:34:40;;;;;;;1.80;1.70;;;2.80;99.90;;;;;;4333768;32;20324;-77
2022/11/24 09:37:05;;;;;;;1.40;1.30;;;2.70;99.90;;;;;;4344663;32;20109;-77
2022/11/24 09:39:31;;;;;;;0.80;0.80;;;2.80;99.90;;;;;;4358761;32;20141;-78
2022/11/24 09:42:29;;;;;;;0.90;0.90;;;2.80;99.90;;;;;;4355001;32;20327;-77
2022/11/24 09:45:06;;;;;;;3.62;2.28;;;2.90;99.90;;;;;;4334533;32;20153;-77
2022/11/24 09:47:43;;;;;;;1.95;1.73;;;3.00;99.90;;;;;;4357949;32;20529;-77
2022/11/24 09:50:14;;;;;;;1.00;1.00;;;3.00;99.90;;;;;;4351311;32;20602;-78
2022/11/24 09:53:00;;;;;;;2.50;1.70;;;3.00;99.90;;;;;;4343624;32;21016;-79
2022/11/24 09:55:47;;;;;;;1.15;1.10;;;3.00;99.90;;;;;;4343180;32;20113;-78
2022/11/24 09:58:35;;;;;;;1.70;1.20;;;3.10;99.90;;;;;;4354113;32;20134;-79
2022/11/24 10:01:24;;;;;;;2.35;1.30;;;3.10;99.90;;;;;;4330373;32;20099;-79
2022/11/24 10:03:51;;;;;;;2.55;1.65;;;3.10;99.90;;;;;;4340887;32;20646;-79
2022/11/24 10:06:30;;;;;;;1.00;1.00;;;3.20;99.90;;;;;;4345498;32;20422;-78
2022/11/24 10:09:29;;;;;;;1.90;1.77;;;3.30;99.90;;;;;;4355468;32;20097;-78
2022/11/24 10:12:01;;;;;;;0.70;0.70;;;3.40;99.90;;;;;;4342988;32;20090;-79
2022/11/24 10:15:07;;;;;;;1.05;1.05;;;3.40;99.90;;;;;;4341554;32;20794;-78
2022/11/24 10:18:01;;;;;;;0.73;0.73;;;3.50;99.90;;;;;;4342326;32;20090;-80
2022/11/24 10:20:32;;;;;;;1.52;1.42;;;3.30;99.90;;;;;;4321431;32;21006;-78
2022/11/24 10:23:17;;;;;;;1.45;1.33;;;3.40;99.90;;;;;;4327000;32;20208;-78
2022/11/24 10:25:56;;;;;;;2.62;1.55;;;3.40;99.90;;;;;;4355960;32;20237;-79
2022/11/24 10:28:34;;;;;;;1.73;1.55;;;3.50;99.90;;;;;;4337649;32;20172;-80
2022/11/24 10:31:17;;;;;;;2.15;1.95;;;3.60;99.90;;;;;;4345388;32;20101;-81
2022/11/24 10:33:43;;;;;;;1.92;1.35;;;3.70;99.90;;;;;;4324818;32;20568;-79
2022/11/24 10:36:16;;;;;;;1.48;1.30;;;3.80;99.90;;;;;;4334806;32;20105;-79
2022/11/24 10:38:49;;;;;;;1.12;0.95;;;3.80;99.90;;;;;;4346872;32;20134;-79
2022/11/24 10:41:22;;;;;;;2.25;1.23;;;3.90;99.90;;;;;;4342309;32;20789;-79
2022/11/24 10:43:48;;;;;;;1.20;1.17;;;3.80;99.90;;;;;;4348779;32;20776;-80
2022/11/24 10:46:21;;;;;;;2.72;2.05;;;4.00;99.90;;;;;;4347007;32;20110;-80
2022/11/24 10:48:52;;;;;;;2.70;1.83;;;4.10;99.90;;;;;;4345494;32;20247;-79
2022/11/24 10:51:42;;;;;;;4.68;2.25;;;4.20;99.90;;;;;;4330570;32;20899;-79
2022/11/24 10:54:16;;;;;;;2.03;1.67;;;4.50;99.90;;;;;;4335250;32;20302;-78
2022/11/24 10:56:43;;;;;;;4.10;1.25;;;4.80;99.90;;;;;;4341811;32;22584;-79
2022/11/24 10:59:28;;;;;;;4.82;2.08;;;4.90;99.90;;;;;;4344034;32;20233;-78
2022/11/24 11:01:54;;;;;;;3.03;1.48;;;4.90;99.90;;;;;;4341472;32;20102;-80
2022/11/24 11:04:36;;;;;;;1.50;1.40;;;4.90;99.90;;;;;;4331312;32;20301;-82
2022/11/24 11:07:17;;;;;;;1.45;1.27;;;4.90;99.90;;;;;;4348480;32;20192;-80
2022/11/24 11:09:42;;;;;;;2.00;1.73;;;4.70;99.90;;;;;;4348255;32;20825;-80
2022/11/24 11:12:16;;;;;;;2.08;1.90;;;4.70;99.90;;;;;;4364724;32;20158;-80
2022/11/24 11:14:41;;;;;;;1.48;1.33;;;4.60;99.90;;;;;;4360540;32;20146;-79
2022/11/24 11:17:35;;;;;;;1.70;1.60;;;4.60;99.90;;;;;;4345665;32;20277;-78
2022/11/24 11:20:05;;;;;;;0.70;0.70;;;4.60;99.90;;;;;;4327953;32;20082;-80
2022/11/24 11:22:34;;;;;;;1.08;1.02;;;4.50;99.90;;;;;;4344829;32;20094;-80
2022/11/24 11:25:16;;;;;;;2.15;1.62;;;4.60;99.90;;;;;;4362624;32;20696;-80
2022/11/24 11:27:44;;;;;;;3.15;1.90;;;4.60;99.90;;;;;;4363264;32;20148;-81
2022/11/24 11:30:21;;;;;;;2.10;1.70;;;4.60;99.90;;;;;;4369643;32;20577;-80
2022/11/24 11:32:59;;;;;;;0.85;0.85;;;4.40;99.90;;;;;;4371271;32;20271;-83
2022/11/24 11:35:27;;;;;;;1.35;1.23;;;4.50;99.90;;;;;;4347576;32;20094;-77
2022/11/24 11:38:00;;;;;;;1.17;1.15;;;4.60;99.90;;;;;;4358238;32;20101;-78
2022/11/24 11:40:27;;;;;;;1.37;1.33;;;4.60;99.90;;;;;;4367699;32;20192;-78
2022/11/24 11:43:04;;;;;;;4.03;1.95;;;4.70;99.90;;;;;;4374091;32;20300;-80
2022/11/24 11:45:43;;;;;;;4.45;2.42;;;4.80;99.90;;;;;;4375160;32;20241;-80
2022/11/24 11:48:21;;;;;;;0.82;0.82;;;4.80;99.90;;;;;;4365107;32;20105;-80
2022/11/24 11:50:51;;;;;;;2.28;1.20;;;4.80;99.90;;;;;;4345406;32;20225;-78
2022/11/24 11:53:30;;;;;;;1.27;1.20;;;4.80;99.90;;;;;;4344132;32;20857;-79
2022/11/24 11:56:23;;;;;;;7.43;2.97;;;4.70;99.90;;;;;;4344673;32;21633;-82
2022/11/24 11:59:11;;;;;;;2.90;2.55;;;4.70;99.90;;;;;;4340943;32;20098;-83
2022/11/24 12:02:01;;;;;;;2.15;1.75;;;4.80;99.90;;;;;;4352529;32;20836;-82
2022/11/24 12:04:48;;;;;;;0.98;0.98;;;4.80;99.90;;;;;;4338731;32;20090;-82
2022/11/24 12:07:50;;;;;;;1.48;1.37;;;4.80;99.90;;;;;;4358336;32;20336;-83
2022/11/24 12:10:40;;;;;;;1.40;1.30;;;4.80;99.90;;;;;;4358106;32;20392;-84
2022/11/24 12:13:41;;;;;;;1.87;1.77;;;4.90;99.90;;;;;;4355521;32;20478;-83
2022/11/24 12:16:22;;;;;;;0.90;0.90;;;4.90;99.90;;;;;;4363921;32;20082;-82
2022/11/24 12:18:56;;;;;;;1.75;1.25;;;4.90;99.90;;;;;;4357429;32;20117;-81
2022/11/24 12:21:42;;;;;;;3.12;1.90;;;5.00;99.90;;;;;;4355201;32;21279;-82
2022/11/24 12:24:34;;;;;;;2.75;1.95;;;4.90;99.90;;;;;;4347787;32;20098;-82
2022/11/24 12:27:35;;;;;;;1.45;1.35;;;4.90;99.90;;;;;;4354918;32;20323;-83
2022/11/24 12:30:10;;;;;;;3.03;2.40;;;5.10;99.90;;;;;;4363583;32;20081;-81
2022/11/24 12:32:42;;;;;;;2.22;1.95;;;5.10;99.90;;;;;;4360753;32;20285;-81
2022/11/24 12:35:20;;;;;;;0.70;0.70;;;5.10;99.90;;;;;;4342955;32;20724;-81
2022/11/24 12:37:57;;;;;;;2.33;1.40;;;5.20;99.90;;;;;;4365214;32;20078;-82
2022/11/24 12:40:56;;;;;;;2.97;1.48;;;5.20;99.90;;;;;;4366656;32;20086;-81
2022/11/24 12:43:32;;;;;;;3.03;2.28;;;5.40;99.90;;;;;;4333637;32;20261;-82
2022/11/24 12:46:19;;;;;;;0.82;0.82;;;5.50;99.90;;;;;;4350404;32;20367;-78
2022/11/24 12:49:12;;;;;;;2.65;1.37;;;5.70;99.90;;;;;;4360694;32;20246;-81
2022/11/24 12:51:43;;;;;;;3.08;1.52;;;5.70;99.90;;;;;;4352591;32;20281;-81
2022/11/24 12:54:14;;;;;;;3.25;1.87;;;5.70;99.90;;;;;;4365497;32;20190;-80
2022/11/24 12:57:04;;;;;;;0.80;0.80;;;5.70;99.90;;;;;;4370646;32;20478;-81
2022/11/24 12:59:44;;;;;;;2.13;1.93;;;5.80;99.90;;;;;;4349217;32;20869;-81
2022/11/24 13:02:32;;;;;;;0.95;0.95;;;5.70;99.90;;;;;;4357190;32;20817;-80
2022/11/24 13:05:18;;;;;;;8.82;1.25;;;5.50;99.90;;;;;;4343569;32;20097;-80
2022/11/24 13:07:52;;;;;;;1.50;1.40;;;5.40;99.90;;;;;;4360247;32;20097;-79
2022/11/24 13:10:28;;;;;;;6.57;2.60;;;5.40;99.90;;;;;;4371591;32;20378;-81
2022/11/24 13:12:59;;;;;;;1.98;1.80;;;5.50;99.90;;;;;;4361609;32;20090;-79